Time;durP1;ratioP1;P1;durP2;ratioP2;P2;SDS_P1;SDS_P2;PMS_P1;PMS_P2;Temp;Humidity;BMP_temperature;BMP_pressure;BME280_temperature;BME280_humidity;BME280_pressure;Samples;Min_cycle;Max_cycle;Signal;HPM_P1;HPM_P2
2023/07/11 00:01:01;;;;;;;;;16.67;15.00;29.10;49.70;;;;;;111010;1247;49052;-68
2023/07/11 00:03:38;;;;;;;;;16.75;14.25;29.10;49.60;;;;;;111304;1247;53303;-70
2023/07/11 00:06:09;;;;;;;;;16.00;15.33;29.10;49.60;;;;;;111005;1246;44518;-70
2023/07/11 00:08:36;;;;;;;;;14.00;13.00;29.10;49.50;;;;;;110767;1246;49610;-69
2023/07/11 00:11:06;;;;;;;;;16.00;15.00;29.10;49.50;;;;;;111022;1241;48774;-70
2023/07/11 00:13:33;;;;;;;;;14.00;13.25;29.10;49.70;;;;;;111392;1244;54894;-71
2023/07/11 00:16:07;;;;;;;;;14.00;12.75;29.10;49.60;;;;;;111033;1246;44634;-69
2023/07/11 00:18:34;;;;;;;;;15.00;13.25;29.10;49.60;;;;;;111044;1247;49587;-69
2023/07/11 00:21:02;;;;;;;;;12.33;11.67;29.10;49.50;;;;;;111026;1243;50407;-70
2023/07/11 00:23:30;;;;;;;;;13.25;11.75;29.10;49.60;;;;;;111240;1248;53816;-68
2023/07/11 00:25:57;;;;;;;;;14.25;13.25;29.10;49.80;;;;;;111043;1244;44415;-69
2023/07/11 00:28:24;;;;;;;;;14.67;13.00;29.10;49.60;;;;;;111023;1241;49554;-69
2023/07/11 00:30:51;;;;;;;;;14.00;13.25;29.10;49.60;;;;;;111049;1242;48976;-70
2023/07/11 00:33:18;;;;;;;;;14.25;14.00;29.10;49.60;;;;;;111304;1245;53451;-70
2023/07/11 00:35:51;;;;;;;;;13.00;12.00;29.10;49.60;;;;;;111033;1243;44862;-69
2023/07/11 00:38:18;;;;;;;;;14.00;13.00;29.10;49.80;;;;;;111032;1246;49042;-69
2023/07/11 00:40:47;;;;;;;;;12.00;11.00;29.10;49.60;;;;;;111034;1243;49638;-69
2023/07/11 00:43:17;;;;;;;;;14.25;13.75;29.10;49.60;;;;;;111254;1241;53180;-69
2023/07/11 00:45:59;;;;;;;;;16.00;14.50;29.10;49.70;;;;;;111038;1245;44077;-70
2023/07/11 00:48:27;;;;;;;;;14.00;13.50;29.10;50.10;;;;;;111108;1250;49357;-69
2023/07/11 00:50:56;;;;;;;;;15.00;13.50;29.10;49.70;;;;;;111065;1247;48937;-69
2023/07/11 00:53:25;;;;;;;;;15.67;14.00;29.10;49.70;;;;;;111230;1247;54231;-70
2023/07/11 00:55:52;;;;;;;;;14.67;13.67;29.00;49.60;;;;;;111058;1247;44699;-68
2023/07/11 00:58:21;;;;;;;;;15.33;15.00;29.00;49.60;;;;;;111026;1241;49327;-70
2023/07/11 01:00:48;;;;;;;;;14.25;14.25;29.00;49.80;;;;;;111037;1244;49683;-70
2023/07/11 01:03:15;;;;;;;;;13.50;13.00;29.00;49.60;;;;;;111305;1246;54154;-70
2023/07/11 01:05:42;;;;;;;;;13.67;13.33;29.00;49.70;;;;;;111049;1247;45038;-70
2023/07/11 01:08:10;;;;;;;;;14.33;14.00;29.00;49.70;;;;;;110970;1246;50518;-70
2023/07/11 01:10:37;;;;;;;;;14.00;13.25;29.00;49.70;;;;;;111046;1246;49726;-71
2023/07/11 01:13:04;;;;;;;;;16.33;15.33;29.00;49.70;;;;;;111173;1243;53731;-70
2023/07/11 01:15:31;;;;;;;;;14.00;13.00;29.00;49.70;;;;;;111155;1241;44395;-69
2023/07/11 01:17:58;;;;;;;;;14.67;13.00;29.00;49.70;;;;;;111014;1247;49651;-70
2023/07/11 01:20:25;;;;;;;;;15.00;14.33;29.00;49.70;;;;;;111049;1247;50097;-70
2023/07/11 01:22:52;;;;;;;;;15.00;15.00;29.00;49.70;;;;;;111030;1244;54983;-71
2023/07/11 01:25:19;;;;;;;;;12.50;11.25;29.00;49.80;;;;;;111331;1244;44971;-69
2023/07/11 01:27:47;;;;;;;;;13.00;12.00;29.00;49.80;;;;;;111055;1244;49546;-69
2023/07/11 01:30:20;;;;;;;;;15.00;14.00;29.00;49.70;;;;;;111012;1243;49607;-69
2023/07/11 01:32:48;;;;;;;;;14.00;13.00;29.00;49.70;;;;;;111045;1246;53342;-69
2023/07/11 01:35:16;;;;;;;;;14.00;13.00;28.90;49.70;;;;;;111356;1243;44199;-69
2023/07/11 01:37:43;;;;;;;;;14.00;13.00;28.90;49.70;;;;;;111023;1246;48936;-70
2023/07/11 01:40:10;;;;;;;;;13.00;12.00;28.90;49.70;;;;;;110994;1243;49341;-69
2023/07/11 01:42:37;;;;;;;;;15.00;13.00;28.90;49.90;;;;;;111009;1244;53973;-70
2023/07/11 01:45:05;;;;;;;;;14.25;12.25;28.90;49.70;;;;;;111205;1244;45824;-74
2023/07/11 01:47:32;;;;;;;;;13.75;12.00;28.90;49.80;;;;;;111049;1241;49521;-68
2023/07/11 01:49:59;;;;;;;;;14.75;13.50;28.90;49.70;;;;;;111002;1244;49574;-70
2023/07/11 01:52:26;;;;;;;;;15.00;13.75;28.90;49.70;;;;;;111033;1244;54568;-70
2023/07/11 01:54:53;;;;;;;;;13.67;13.00;28.90;49.80;;;;;;111333;1245;45002;-69
2023/07/11 01:57:20;;;;;;;;;15.75;14.00;28.90;49.80;;;;;;111010;1244;50006;-69
2023/07/11 01:59:47;;;;;;;;;14.00;13.00;28.90;49.80;;;;;;111013;1247;49806;-70
2023/07/11 02:02:14;;;;;;;;;13.00;12.00;28.90;49.80;;;;;;111038;1247;54024;-68
2023/07/11 02:04:41;;;;;;;;;14.50;13.50;28.90;49.80;;;;;;111315;1246;44493;-69
2023/07/11 02:07:08;;;;;;;;;13.50;13.00;28.90;49.80;;;;;;111049;1244;50450;-68
2023/07/11 02:09:35;;;;;;;;;13.67;13.00;28.90;49.80;;;;;;111001;1248;49692;-68
2023/07/11 02:12:02;;;;;;;;;13.00;12.00;28.90;49.80;;;;;;111063;1244;53943;-68
2023/07/11 02:14:29;;;;;;;;;13.50;12.00;28.90;49.80;;;;;;111399;1244;45106;-68
2023/07/11 02:16:56;;;;;;;;;13.00;12.00;28.80;50.00;;;;;;111058;1247;49886;-70
2023/07/11 02:19:24;;;;;;;;;13.00;11.50;28.90;49.80;;;;;;111020;1247;49207;-70
2023/07/11 02:21:51;;;;;;;;;13.25;12.75;28.90;49.80;;;;;;111047;1247;53041;-70
2023/07/11 02:24:18;;;;;;;;;16.50;15.50;28.80;49.70;;;;;;111362;1243;45044;-72
2023/07/11 02:26:46;;;;;;;;;13.00;12.25;28.80;49.80;;;;;;111003;1247;50357;-70
2023/07/11 02:29:13;;;;;;;;;16.00;13.33;28.80;49.70;;;;;;110922;1244;49184;-70
2023/07/11 02:31:41;;;;;;;;;14.00;13.00;28.80;49.70;;;;;;111004;1247;54609;-71
2023/07/11 02:34:08;;;;;;;;;14.00;13.50;28.80;49.80;;;;;;111280;1242;44351;-71
2023/07/11 02:36:35;;;;;;;;;14.00;12.33;28.80;49.80;;;;;;111023;1241;49854;-70
2023/07/11 02:39:02;;;;;;;;;13.00;12.25;28.80;50.00;;;;;;111041;1244;50534;-71
2023/07/11 02:41:29;;;;;;;;;13.00;11.33;28.80;49.80;;;;;;111047;1247;54039;-72
2023/07/11 02:43:57;;;;;;;;;14.00;13.00;28.80;49.80;;;;;;111307;1244;44739;-72
2023/07/11 02:46:24;;;;;;;;;15.00;13.00;28.70;49.90;;;;;;111057;1242;50214;-70
2023/07/11 02:48:51;;;;;;;;;13.00;11.00;28.80;49.80;;;;;;111049;1247;49734;-71
2023/07/11 02:51:18;;;;;;;;;12.00;11.00;28.70;49.70;;;;;;111011;1247;54694;-71
2023/07/11 02:53:45;;;;;;;;;12.33;11.67;28.70;49.70;;;;;;111308;1247;44518;-71
2023/07/11 02:56:12;;;;;;;;;15.00;13.25;28.70;49.80;;;;;;111046;1243;49551;-69
2023/07/11 02:58:39;;;;;;;;;14.00;12.50;28.70;49.80;;;;;;111035;1247;49400;-68
2023/07/11 03:01:06;;;;;;;;;14.00;13.00;28.70;49.70;;;;;;110965;1247;53394;-69
2023/07/11 03:03:33;;;;;;;;;14.00;12.33;28.70;49.80;;;;;;111357;1243;43968;-70
2023/07/11 03:06:00;;;;;;;;;13.00;12.00;28.70;50.00;;;;;;111020;1244;49472;-68
2023/07/11 03:08:27;;;;;;;;;12.75;12.00;28.70;49.80;;;;;;111004;1244;49735;-69
2023/07/11 03:10:58;;;;;;;;;12.75;12.50;28.70;49.90;;;;;;111055;1244;54639;-69
2023/07/11 03:13:26;;;;;;;;;13.00;13.00;28.70;49.80;;;;;;111206;1244;45037;-70
2023/07/11 03:15:53;;;;;;;;;17.25;14.00;28.70;49.80;;;;;;111022;1247;49152;-69
2023/07/11 03:18:19;;;;;;;;;13.00;13.00;28.70;49.80;;;;;;111028;1245;50585;-69
2023/07/11 03:20:46;;;;;;;;;13.25;12.25;28.70;49.70;;;;;;111007;1243;54733;-70
2023/07/11 03:23:15;;;;;;;;;14.50;13.00;28.70;49.80;;;;;;111238;1247;44591;-70
2023/07/11 03:25:42;;;;;;;;;12.00;11.50;28.70;49.80;;;;;;111085;1247;50186;-71
2023/07/11 03:28:09;;;;;;;;;14.00;14.00;28.70;49.80;;;;;;111048;1242;49513;-70
2023/07/11 03:30:36;;;;;;;;;11.75;11.00;28.70;49.80;;;;;;111054;1247;53994;-69
2023/07/11 03:33:04;;;;;;;;;14.25;13.25;28.70;49.70;;;;;;111135;1247;44353;-69
2023/07/11 03:35:31;;;;;;;;;15.00;13.00;28.70;49.80;;;;;;110918;1247;49326;-70
2023/07/11 03:37:58;;;;;;;;;13.00;12.00;28.70;49.80;;;;;;111003;1243;49521;-71
2023/07/11 03:40:26;;;;;;;;;11.25;10.25;28.70;49.80;;;;;;110886;1245;53816;-69
2023/07/11 03:42:53;;;;;;;;;13.00;11.75;28.60;49.70;;;;;;111156;1241;44962;-71
2023/07/11 03:45:20;;;;;;;;;13.75;11.25;28.60;49.80;;;;;;111293;1247;49727;-69
2023/07/11 03:47:47;;;;;;;;;22.50;21.00;28.60;49.70;;;;;;111029;1243;50018;-70
2023/07/11 03:50:14;;;;;;;;;26.00;25.50;28.60;48.90;;;;;;111025;1241;54445;-69
2023/07/11 03:52:41;;;;;;;;;29.00;26.50;28.60;48.60;;;;;;111019;1244;44527;-69
2023/07/11 03:55:09;;;;;;;;;28.00;25.00;28.60;48.80;;;;;;111308;1248;49256;-70
2023/07/11 03:57:36;;;;;;;;;25.00;23.00;28.50;48.80;;;;;;111029;1247;50241;-71
2023/07/11 04:00:03;;;;;;;;;22.00;21.75;28.50;48.90;;;;;;111035;1247;54400;-70
2023/07/11 04:02:30;;;;;;;;;24.00;22.33;28.50;49.00;;;;;;111094;1241;44503;-70
2023/07/11 04:04:57;;;;;;;;;22.00;21.00;28.50;49.30;;;;;;110957;1244;49632;-71
2023/07/11 04:07:24;;;;;;;;;24.00;22.00;28.50;49.10;;;;;;110938;1247;49872;-66
2023/07/11 04:09:51;;;;;;;;;24.25;23.50;28.50;49.20;;;;;;111029;1247;54859;-67
2023/07/11 04:12:18;;;;;;;;;26.00;26.00;28.50;49.50;;;;;;111033;1241;45023;-67
2023/07/11 04:14:45;;;;;;;;;25.33;24.33;28.40;49.40;;;;;;111326;1244;48962;-65
2023/07/11 04:17:11;;;;;;;;;26.00;25.50;28.40;49.50;;;;;;111035;1247;49881;-67
2023/07/11 04:19:38;;;;;;;;;27.00;25.00;28.50;49.90;;;;;;111026;1243;54947;-67
2023/07/11 04:22:05;;;;;;;;;28.25;27.75;28.50;49.40;;;;;;111037;1244;44835;-66
2023/07/11 04:24:32;;;;;;;;;25.50;24.25;28.40;49.40;;;;;;111307;1243;49933;-67
2023/07/11 04:26:59;;;;;;;;;25.50;24.00;28.40;49.60;;;;;;111073;1244;49463;-68
2023/07/11 04:29:26;;;;;;;;;32.50;30.00;28.40;48.90;;;;;;111012;1242;54324;-68
2023/07/11 04:31:53;;;;;;;;;25.67;25.00;28.40;48.10;;;;;;111055;1246;44895;-67
2023/07/11 04:34:20;;;;;;;;;29.00;28.00;28.30;48.20;;;;;;111359;1243;49042;-67
2023/07/11 04:36:47;;;;;;;;;31.00;29.33;28.20;48.30;;;;;;111053;1247;49670;-67
2023/07/11 04:39:14;;;;;;;;;28.25;26.25;28.20;48.20;;;;;;111048;1241;54529;-67
2023/07/11 04:41:41;;;;;;;;;28.50;25.75;28.20;49.40;;;;;;111141;1246;44455;-67
2023/07/11 04:44:08;;;;;;;;;27.00;26.00;28.10;49.60;;;;;;111381;1246;48989;-68
2023/07/11 04:46:35;;;;;;;;;27.00;26.50;28.10;49.90;;;;;;111052;1244;50048;-70
2023/07/11 04:49:02;;;;;;;;;29.00;27.25;28.10;50.10;;;;;;111039;1241;54155;-68
2023/07/11 04:51:29;;;;;;;;;27.00;26.00;28.10;50.10;;;;;;111052;1244;45400;-67
2023/07/11 04:53:56;;;;;;;;;29.00;28.00;28.10;50.10;;;;;;111349;1247;49559;-69
2023/07/11 04:56:24;;;;;;;;;42.25;33.25;28.10;50.20;;;;;;111043;1244;48828;-69
2023/07/11 04:58:50;;;;;;;;;35.67;32.00;28.10;50.00;;;;;;111085;1241;53792;-72
2023/07/11 05:01:18;;;;;;;;;37.00;33.00;28.10;50.00;;;;;;111105;1244;44775;-73
2023/07/11 05:03:48;;;;;;;;;35.50;30.25;28.10;50.10;;;;;;111384;1246;49991;-72
2023/07/11 05:06:15;;;;;;;;;32.00;29.00;28.10;50.00;;;;;;111055;1247;49926;-72
2023/07/11 05:08:42;;;;;;;;;34.00;30.00;28.10;50.20;;;;;;111074;1244;54648;-72
2023/07/11 05:11:15;;;;;;;;;35.33;30.33;28.10;49.90;;;;;;111077;1244;45208;-71
2023/07/11 05:13:45;;;;;;;;;33.00;30.25;28.10;50.20;;;;;;111385;1246;49042;-71
2023/07/11 05:16:14;;;;;;;;;77.67;68.67;28.20;52.80;;;;;;111054;1241;49386;-71
2023/07/11 05:18:42;;;;;;;;;122.00;112.00;28.20;53.30;;;;;;111077;1244;54965;-69
2023/07/11 05:21:10;;;;;;;;;76.50;70.00;28.20;54.10;;;;;;111058;1245;44538;-65
2023/07/11 05:23:37;;;;;;;;;91.00;80.33;28.20;52.90;;;;;;111378;1246;49033;-68
2023/07/11 05:26:05;;;;;;;;;74.25;60.00;28.10;53.10;;;;;;111080;1246;48898;-68
2023/07/11 05:28:32;;;;;;;;;69.50;58.00;28.10;53.00;;;;;;111111;1243;53975;-67
2023/07/11 05:31:01;;;;;;;;;68.67;51.67;28.10;52.90;;;;;;111081;1244;44791;-68
2023/07/11 05:33:29;;;;;;;;;62.75;47.50;28.10;52.60;;;;;;111428;1243;49047;-67
2023/07/11 05:36:32;;;;;;;;;59.00;45.25;28.10;52.60;;;;;;110580;1247;646592;-67
2023/07/11 05:39:00;;;;;;;;;61.25;46.25;28.20;52.30;;;;;;111092;1241;54744;-68
2023/07/11 05:41:27;;;;;;;;;58.67;43.67;28.20;52.10;;;;;;111086;1241;44591;-68
2023/07/11 05:43:55;;;;;;;;;62.00;45.50;28.30;52.20;;;;;;111243;1244;49596;-68
2023/07/11 05:46:23;;;;;;;;;56.67;43.00;28.30;51.90;;;;;;111053;1241;50502;-68
2023/07/11 05:48:51;;;;;;;;;55.33;43.67;28.30;51.80;;;;;;111073;1241;53610;-67
2023/07/11 05:51:18;;;;;;;;;62.00;46.00;28.30;51.70;;;;;;111024;1245;45895;-68
2023/07/11 05:53:46;;;;;;;;;52.33;41.00;28.30;51.50;;;;;;111374;1241;50566;-68
2023/07/11 05:56:14;;;;;;;;;54.25;41.50;28.30;51.50;;;;;;111039;1247;49358;-68
2023/07/11 05:58:43;;;;;;;;;52.50;41.50;28.40;51.40;;;;;;111057;1247;54072;-67
2023/07/11 06:01:11;;;;;;;;;56.00;41.00;28.40;51.40;;;;;;111031;1247;46027;-68
2023/07/11 06:03:45;;;;;;;;;55.00;42.00;28.40;51.30;;;;;;111290;1247;49538;-68
2023/07/11 06:06:14;;;;;;;;;54.00;41.67;28.40;51.30;;;;;;111030;1246;49238;-67
2023/07/11 06:08:41;;;;;;;;;56.75;42.00;28.40;51.20;;;;;;111049;1247;53251;-68
2023/07/11 06:11:08;;;;;;;;;51.00;40.00;28.50;51.10;;;;;;111078;1242;45382;-68
2023/07/11 06:13:37;;;;;;;;;49.00;40.00;28.50;51.10;;;;;;111362;1247;48912;-69
2023/07/11 06:16:06;;;;;;;;;51.00;39.25;28.50;51.20;;;;;;111064;1247;49795;-67
2023/07/11 06:18:36;;;;;;;;;56.33;42.00;28.50;50.90;;;;;;111093;1242;54068;-68
2023/07/11 06:21:04;;;;;;;;;52.75;41.00;28.50;50.80;;;;;;111128;1244;44981;-69
2023/07/11 06:23:30;;;;;;;;;47.00;38.50;28.50;50.70;;;;;;111359;1247;51009;-69
2023/07/11 06:25:58;;;;;;;;;51.33;41.33;28.60;50.80;;;;;;111097;1247;49161;-68
2023/07/11 06:28:26;;;;;;;;;47.50;38.00;28.60;50.70;;;;;;111201;1247;54016;-66
2023/07/11 06:30:58;;;;;;;;;41.00;34.75;28.60;50.90;;;;;;111131;1241;45063;-68
2023/07/11 06:33:25;;;;;;;;;33.50;30.25;28.70;50.80;;;;;;112581;1243;49188;-67
2023/07/11 06:35:54;;;;;;;;;32.00;30.00;28.70;51.20;;;;;;111082;1246;49986;-67
2023/07/11 06:38:21;;;;;;;;;31.00;29.00;28.70;50.60;;;;;;111087;1247;53901;-68
2023/07/11 06:40:50;;;;;;;;;34.50;30.25;28.80;50.10;;;;;;111074;1242;44659;-68
2023/07/11 06:43:17;;;;;;;;;33.00;29.25;28.70;49.90;;;;;;111397;1242;49451;-69
2023/07/11 06:45:47;;;;;;;;;33.33;30.33;28.70;50.10;;;;;;111100;1245;49476;-66
2023/07/11 06:48:16;;;;;;;;;29.50;27.00;28.70;50.00;;;;;;111047;1247;53453;-70
2023/07/11 06:50:48;;;;;;;;;31.00;30.00;28.70;49.90;;;;;;111190;1244;44202;-67
2023/07/11 06:53:15;;;;;;;;;29.00;28.00;28.70;49.80;;;;;;111353;1245;50080;-68
2023/07/11 06:55:46;;;;;;;;;25.67;24.67;28.70;49.70;;;;;;111202;1246;50027;-66
2023/07/11 06:58:14;;;;;;;;;32.00;28.67;28.70;49.60;;;;;;111279;1246;53823;-70
2023/07/11 07:00:41;;;;;;;;;28.50;27.50;28.80;49.60;;;;;;111236;1245;45098;-70
2023/07/11 07:03:11;;;;;;;;;28.33;26.67;28.80;49.40;;;;;;111351;1244;49333;-69
2023/07/11 07:05:39;;;;;;;;;27.00;26.50;28.80;49.40;;;;;;111259;1247;49751;-68
2023/07/11 07:08:05;;;;;;;;;32.25;30.00;28.90;49.20;;;;;;111000;1247;54108;-68
2023/07/11 07:10:32;;;;;;;;;32.50;31.00;28.90;48.90;;;;;;111206;1246;45411;-69
2023/07/11 07:12:59;;;;;;;;;31.33;30.00;28.90;48.60;;;;;;111248;1241;49074;-68
2023/07/11 07:15:26;;;;;;;;;32.50;29.50;28.90;48.60;;;;;;111397;1244;50193;-68
2023/07/11 07:17:53;;;;;;;;;28.00;26.33;29.00;48.80;;;;;;111153;1244;53885;-68
2023/07/11 07:20:20;;;;;;;;;34.75;31.75;29.00;49.10;;;;;;111194;1246;44306;-69
2023/07/11 07:22:47;;;;;;;;;28.25;27.00;29.00;49.00;;;;;;111054;1241;50395;-67
2023/07/11 07:25:14;;;;;;;;;30.50;26.50;29.00;49.20;;;;;;111394;1241;49640;-67
2023/07/11 07:27:41;;;;;;;;;28.00;26.00;29.10;49.20;;;;;;111076;1244;54369;-66
2023/07/11 07:30:10;;;;;;;;;25.00;24.50;29.10;49.30;;;;;;110948;1243;45113;-67
2023/07/11 07:32:37;;;;;;;;;27.50;26.00;29.00;49.40;;;;;;111108;1247;49767;-66
2023/07/11 07:35:05;;;;;;;;;31.00;28.00;29.00;49.60;;;;;;111350;1243;50550;-66
2023/07/11 07:37:35;;;;;;;;;23.25;23.25;28.90;50.60;;;;;;111044;1245;54621;-65
2023/07/11 07:40:03;;;;;;;;;25.67;25.33;28.90;51.00;;;;;;110958;1241;45271;-67
2023/07/11 07:42:30;;;;;;;;;29.33;25.67;28.80;51.10;;;;;;111183;1244;50234;-70
2023/07/11 07:44:57;;;;;;;;;31.00;27.00;28.80;51.00;;;;;;111270;1244;49124;-69
2023/07/11 07:47:24;;;;;;;;;30.25;29.50;28.70;51.40;;;;;;111088;1241;53054;-70
2023/07/11 07:49:51;;;;;;;;;30.25;29.00;28.60;51.40;;;;;;111027;1243;44581;-69
2023/07/11 07:52:18;;;;;;;;;28.00;27.00;28.60;51.50;;;;;;111106;1243;49231;-71
2023/07/11 07:54:45;;;;;;;;;29.33;26.33;28.50;51.50;;;;;;111393;1243;50007;-71
2023/07/11 07:57:12;;;;;;;;;29.00;27.00;28.50;51.70;;;;;;111063;1247;53287;-69
2023/07/11 07:59:39;;;;;;;;;28.50;27.50;28.50;51.60;;;;;;111069;1243;45953;-70
2023/07/11 08:02:09;;;;;;;;;28.00;25.00;28.40;51.60;;;;;;111058;1247;49344;-64
2023/07/11 08:04:36;;;;;;;;;32.00;30.33;28.40;52.00;;;;;;111389;1247;49856;-68
2023/07/11 08:07:03;;;;;;;;;29.00;27.25;28.50;51.40;;;;;;111143;1241;54060;-66
2023/07/11 08:09:30;;;;;;;;;34.50;31.50;28.50;51.40;;;;;;111005;1243;44516;-66
2023/07/11 08:12:05;;;;;;;;;35.00;31.00;28.50;51.10;;;;;;110977;1246;50026;-65
2023/07/11 08:14:36;;;;;;;;;35.00;32.00;28.60;51.20;;;;;;111069;1243;49189;-67
2023/07/11 08:17:04;;;;;;;;;38.67;34.00;28.60;51.30;;;;;;111118;1247;54363;-71
2023/07/11 08:19:31;;;;;;;;;36.00;32.00;28.70;51.50;;;;;;111130;1241;45108;-65
2023/07/11 08:21:58;;;;;;;;;36.00;32.33;28.70;51.70;;;;;;111104;1244;50129;-68
2023/07/11 08:24:26;;;;;;;;;41.00;33.25;28.70;51.90;;;;;;111306;1244;49185;-66
2023/07/11 08:26:53;;;;;;;;;37.00;32.75;28.70;52.00;;;;;;111110;1247;53183;-66
2023/07/11 08:29:20;;;;;;;;;38.00;33.00;28.70;52.10;;;;;;110951;1241;44404;-68
2023/07/11 08:31:47;;;;;;;;;37.50;32.50;28.70;52.30;;;;;;111007;1245;49260;-69
2023/07/11 08:34:15;;;;;;;;;38.25;33.75;28.70;52.30;;;;;;111303;1242;49829;-68
2023/07/11 08:36:44;;;;;;;;;38.25;34.00;28.70;52.40;;;;;;111040;1247;53703;-69
2023/07/11 08:39:12;;;;;;;;;38.00;33.00;28.70;52.50;;;;;;111028;1247;45102;-69
2023/07/11 08:41:46;;;;;;;;;43.75;35.25;28.70;52.50;;;;;;111039;1244;49733;-67
2023/07/11 08:44:19;;;;;;;;;39.33;34.00;28.60;52.50;;;;;;111019;1247;49203;-64
2023/07/11 08:46:53;;;;;;;;;37.00;33.00;28.70;52.60;;;;;;111101;1247;54636;-66
2023/07/11 08:49:26;;;;;;;;;38.25;32.00;28.70;52.60;;;;;;110927;1241;45756;-66
2023/07/11 08:51:55;;;;;;;;;43.00;35.67;28.70;52.50;;;;;;111043;1241;48987;-65
2023/07/11 08:54:31;;;;;;;;;33.00;29.67;28.80;52.50;;;;;;111348;1247;50429;-64
2023/07/11 08:56:59;;;;;;;;;42.33;35.00;28.90;52.40;;;;;;111004;1246;53541;-64
2023/07/11 08:59:34;;;;;;;;;36.00;32.00;28.90;52.40;;;;;;111114;1243;44410;-69
2023/07/11 09:02:31;;;;;;;;;37.75;33.25;29.00;52.10;;;;;;111095;1244;49259;-69
2023/07/11 09:04:59;;;;;;;;;40.00;34.00;29.00;52.90;;;;;;110960;1245;48962;-72
2023/07/11 09:07:41;;;;;;;;;40.33;34.00;28.90;52.50;;;;;;111034;1247;53305;-70
2023/07/11 09:10:18;;;;;;;;;38.00;33.00;28.90;52.30;;;;;;111049;1241;44520;-67
2023/07/11 09:12:53;;;;;;;;;34.00;31.00;28.90;52.50;;;;;;111057;1247;49641;-68
2023/07/11 09:15:28;;;;;;;;;31.67;30.00;29.00;52.40;;;;;;111403;1245;50266;-68
2023/07/11 09:18:34;;;;;;;;;35.75;31.00;29.00;52.30;;;;;;111087;1246;53254;-68
2023/07/11 09:21:14;;;;;;;;;30.75;29.00;29.00;52.50;;;;;;111069;1241;44193;-67
2023/07/11 09:24:10;;;;;;;;;37.00;32.00;29.00;51.80;;;;;;111385;1247;49104;-69
2023/07/11 09:26:46;;;;;;;;;34.00;31.33;29.00;51.80;;;;;;111083;1241;49022;-68
2023/07/11 09:29:14;;;;;;;;;35.00;31.00;29.00;52.10;;;;;;111080;1241;53392;-66
2023/07/11 09:31:50;;;;;;;;;32.33;30.33;29.00;52.00;;;;;;111222;1244;44923;-66
2023/07/11 09:34:24;;;;;;;;;33.25;31.25;29.00;51.80;;;;;;111389;1242;49332;-65
2023/07/11 09:36:52;;;;;;;;;33.33;31.00;28.90;52.00;;;;;;111120;1244;49178;-65
2023/07/11 09:39:31;;;;;;;;;32.00;30.25;28.90;52.30;;;;;;111187;1244;53966;-65
2023/07/11 09:42:04;;;;;;;;;31.33;29.33;28.90;52.40;;;;;;111222;1247;44787;-66
2023/07/11 09:44:31;;;;;;;;;34.33;30.67;28.90;52.50;;;;;;111510;1242;49603;-67
2023/07/11 09:47:12;;;;;;;;;36.33;31.00;28.90;52.50;;;;;;111117;1247;50185;-67
2023/07/11 09:49:41;;;;;;;;;35.67;31.33;28.90;52.00;;;;;;111167;1244;53568;-66
2023/07/11 09:52:10;;;;;;;;;32.50;30.50;28.90;52.10;;;;;;111081;1241;44523;-68
2023/07/11 09:54:46;;;;;;;;;36.33;31.33;28.90;51.80;;;;;;111431;1241;49844;-70
2023/07/11 09:57:13;;;;;;;;;34.67;32.00;28.90;51.70;;;;;;111275;1244;50051;-70
2023/07/11 09:59:43;;;;;;;;;34.00;32.00;28.90;52.00;;;;;;111172;1247;53938;-68
2023/07/11 10:02:17;;;;;;;;;34.00;29.75;29.00;52.00;;;;;;111164;1247;44730;-67
2023/07/11 10:04:45;;;;;;;;;34.00;29.00;28.90;51.60;;;;;;111411;1247;49457;-68
2023/07/11 10:07:14;;;;;;;;;33.00;31.00;28.90;52.00;;;;;;111133;1241;49434;-65
2023/07/11 10:09:59;;;;;;;;;33.75;31.00;29.00;52.40;;;;;;111087;1245;54133;-66
2023/07/11 10:12:26;;;;;;;;;30.33;29.00;29.00;51.90;;;;;;111163;1242;45153;-66
2023/07/11 10:14:56;;;;;;;;;30.00;27.67;29.10;52.10;;;;;;111394;1246;49923;-66
2023/07/11 10:17:26;;;;;;;;;55.00;43.50;29.10;52.10;;;;;;110923;1243;49284;-67
2023/07/11 10:19:59;;;;;;;;;65.33;49.33;29.20;52.50;;;;;;111061;1247;53231;-69
2023/07/11 10:22:29;;;;;;;;;55.25;44.75;29.10;52.50;;;;;;111082;1241;44947;-68
2023/07/11 10:25:15;;;;;;;;;45.00;37.00;29.20;52.00;;;;;;111333;1247;51100;-68
2023/07/11 10:27:45;;;;;;;;;43.00;36.00;29.30;52.00;;;;;;111097;1244;49770;-67
2023/07/11 10:30:19;;;;;;;;;40.33;34.00;29.20;51.90;;;;;;111106;1247;54362;-67
2023/07/11 10:32:56;;;;;;;;;38.25;32.75;29.30;51.50;;;;;;110926;1247;44428;-65
2023/07/11 10:35:24;;;;;;;;;36.00;32.00;29.30;51.30;;;;;;110964;1246;49473;-65
2023/07/11 10:37:55;;;;;;;;;35.33;32.00;29.30;51.50;;;;;;110971;1241;50177;-66
2023/07/11 10:40:28;;;;;;;;;31.67;29.00;29.30;51.60;;;;;;111000;1241;54160;-66
2023/07/11 10:43:06;;;;;;;;;28.50;28.00;29.30;51.60;;;;;;110980;1247;44159;-65
2023/07/11 10:45:43;;;;;;;;;29.25;28.25;29.30;51.20;;;;;;111000;1241;48685;-65
2023/07/11 10:48:32;;;;;;;;;33.00;29.25;29.30;51.00;;;;;;110954;1244;50370;-67
2023/07/11 10:51:17;;;;;;;;;29.25;28.50;29.30;50.90;;;;;;110939;1247;54705;-66
2023/07/11 10:53:59;;;;;;;;;31.00;29.00;29.30;51.00;;;;;;111045;1241;45710;-65
2023/07/11 10:56:32;;;;;;;;;27.00;25.75;29.30;50.90;;;;;;111050;1244;49660;-66
2023/07/11 10:59:00;;;;;;;;;29.67;28.00;29.30;50.00;;;;;;110937;1244;49799;-67
2023/07/11 11:01:49;;;;;;;;;27.00;26.00;29.40;49.10;;;;;;110971;1241;53659;-67
2023/07/11 11:04:22;;;;;;;;;31.00;28.00;29.40;49.10;;;;;;110786;1250;45279;-67
2023/07/11 11:07:00;;;;;;;;;26.67;25.33;29.40;49.40;;;;;;110970;1241;49668;-66
2023/07/11 11:09:38;;;;;;;;;27.00;26.50;29.40;50.10;;;;;;110985;1244;50485;-66
2023/07/11 11:12:42;;;;;;;;;23.00;23.00;29.40;49.90;;;;;;110953;1245;53700;-66
2023/07/11 11:15:12;;;;;;;;;27.75;25.00;29.40;49.40;;;;;;110749;1248;44450;-66
2023/07/11 11:17:55;;;;;;;;;26.00;25.00;29.40;49.30;;;;;;110981;1243;49756;-66
2023/07/11 11:20:41;;;;;;;;;25.50;25.00;29.40;49.80;;;;;;110923;1247;50376;-67
2023/07/11 11:23:42;;;;;;;;;24.50;23.00;29.40;50.00;;;;;;110947;1248;53987;-66
2023/07/11 11:26:22;;;;;;;;;27.50;26.25;29.40;49.80;;;;;;111088;1241;45701;-66
2023/07/11 11:28:56;;;;;;;;;25.33;24.33;29.40;49.80;;;;;;110952;1244;49432;-67
2023/07/11 11:31:25;;;;;;;;;29.25;26.00;29.40;49.10;;;;;;110959;1248;49089;-65
2023/07/11 11:34:21;;;;;;;;;27.00;25.67;29.40;48.40;;;;;;111005;1244;54371;-67
2023/07/11 11:37:16;;;;;;;;;25.25;24.75;29.30;49.30;;;;;;110984;1241;45355;-66
2023/07/11 11:39:49;;;;;;;;;26.00;24.00;29.30;48.60;;;;;;110970;1241;48868;-67
2023/07/11 11:42:24;;;;;;;;;27.00;25.00;29.40;49.30;;;;;;111006;1246;50019;-69
2023/07/11 11:45:00;;;;;;;;;25.50;25.00;29.40;49.80;;;;;;111002;1244;54086;-67
2023/07/11 11:47:28;;;;;;;;;27.00;25.50;29.40;49.80;;;;;;110851;1244;44874;-68
2023/07/11 11:49:56;;;;;;;;;26.00;25.00;29.40;49.70;;;;;;110941;1248;50110;-67
2023/07/11 11:52:24;;;;;;;;;25.33;24.00;29.30;49.80;;;;;;111055;1244;48977;-66
2023/07/11 11:54:51;;;;;;;;;25.00;24.00;29.30;49.90;;;;;;111020;1247;53787;-66
2023/07/11 11:57:22;;;;;;;;;24.25;23.00;29.30;50.10;;;;;;110940;1247;45451;-66
2023/07/11 11:59:50;;;;;;;;;27.75;25.75;29.30;50.20;;;;;;110971;1247;50428;-66
2023/07/11 12:02:28;;;;;;;;;24.00;23.67;29.30;50.10;;;;;;110966;1245;49251;-67
2023/07/11 12:04:59;;;;;;;;;26.00;24.67;29.30;50.10;;;;;;111009;1244;54821;-66
2023/07/11 12:07:33;;;;;;;;;26.33;24.00;29.30;50.20;;;;;;110945;1241;45843;-67
2023/07/11 12:10:14;;;;;;;;;25.00;24.33;29.40;50.20;;;;;;110961;1247;49672;-66
2023/07/11 12:12:41;;;;;;;;;26.50;25.00;29.40;49.70;;;;;;110865;1244;49810;-67
2023/07/11 12:15:31;;;;;;;;;27.33;26.00;29.40;50.50;;;;;;110991;1241;54030;-66
2023/07/11 12:18:22;;;;;;;;;25.00;24.00;29.30;50.50;;;;;;110925;1247;44222;-67
2023/07/11 12:21:06;;;;;;;;;30.00;27.00;29.30;50.40;;;;;;111333;1241;49010;-73
2023/07/11 12:23:33;;;;;;;;;27.75;24.75;29.40;51.00;;;;;;111513;1241;50662;-72
2023/07/11 12:26:19;;;;;;;;;27.00;26.50;29.40;51.20;;;;;;111144;1244;54476;-69
2023/07/11 12:29:49;;;;;;;;;26.50;26.00;29.40;51.00;;;;;;111193;1241;46506;-70
2023/07/11 12:32:31;;;;;;;;;24.75;24.00;29.40;51.30;;;;;;111033;1247;49165;-71
2023/07/11 12:35:11;;;;;;;;;25.50;23.00;29.40;51.10;;;;;;111368;1247;49814;-71